Time;durP1;ratioP1;P1;durP2;ratioP2;P2;SDS_P1;SDS_P2;PMS_P1;PMS_P2;Temp;Humidity;BMP_temperature;BMP_pressure;BME280_temperature;BME280_humidity;BME280_pressure;Samples;Min_cycle;Max_cycle;Signal;HPM_P1;HPM_P2
2023/06/10 00:01:13;;;;;;;12.65;7.35;;;16.60;99.90;;;;;;5040044;28;20458;-62
2023/06/10 00:03:41;;;;;;;11.18;6.90;;;16.60;99.90;;;;;;5010480;28;20142;-62
2023/06/10 00:06:15;;;;;;;13.18;7.82;;;16.50;99.90;;;;;;5025512;28;20048;-62
2023/06/10 00:08:42;;;;;;;11.30;6.93;;;16.50;99.90;;;;;;5041289;28;20102;-62
2023/06/10 00:11:07;;;;;;;10.57;6.68;;;16.50;99.90;;;;;;5029797;28;20049;-60
2023/06/10 00:13:33;;;;;;;10.55;6.95;;;16.50;99.90;;;;;;5028424;28;20037;-61
2023/06/10 00:15:59;;;;;;;14.32;8.10;;;16.40;99.90;;;;;;5043934;28;20046;-61
2023/06/10 00:18:26;;;;;;;10.52;6.88;;;16.40;99.90;;;;;;5038299;28;20040;-61
2023/06/10 00:20:54;;;;;;;14.40;7.32;;;16.40;99.90;;;;;;5025212;28;20121;-62
2023/06/10 00:23:22;;;;;;;11.43;6.75;;;16.30;99.90;;;;;;5027642;28;20041;-62
2023/06/10 00:25:48;;;;;;;13.10;6.93;;;16.30;99.90;;;;;;5007219;28;20052;-61
2023/06/10 00:28:13;;;;;;;12.15;7.03;;;16.30;99.90;;;;;;5020234;28;20033;-61
2023/06/10 00:30:39;;;;;;;11.45;7.07;;;16.30;99.90;;;;;;5009397;28;20032;-61
2023/06/10 00:33:05;;;;;;;13.15;7.85;;;16.30;99.90;;;;;;5011009;28;20045;-62
2023/06/10 00:35:30;;;;;;;11.82;7.13;;;16.20;99.90;;;;;;5020397;28;20289;-62
2023/06/10 00:37:56;;;;;;;13.70;7.38;;;16.20;99.90;;;;;;5017538;28;20049;-61
2023/06/10 00:40:22;;;;;;;10.73;6.30;;;16.20;99.90;;;;;;5023525;28;20113;-61
2023/06/10 00:42:47;;;;;;;9.75;6.43;;;16.20;99.90;;;;;;5038657;28;20041;-62
2023/06/10 00:45:13;;;;;;;12.32;7.63;;;16.20;99.90;;;;;;5042910;28;20045;-62
2023/06/10 00:47:39;;;;;;;9.88;6.97;;;16.20;99.90;;;;;;5026110;28;20371;-62
2023/06/10 00:50:07;;;;;;;11.80;7.72;;;16.20;99.90;;;;;;5020953;28;20076;-61
2023/06/10 00:52:34;;;;;;;10.15;6.30;;;16.20;99.90;;;;;;5006526;28;20048;-59
2023/06/10 00:55:00;;;;;;;12.30;7.10;;;16.10;99.90;;;;;;5028303;28;20128;-61
2023/06/10 00:57:26;;;;;;;10.93;7.03;;;16.10;99.90;;;;;;5007319;28;20036;-61
2023/06/10 00:59:53;;;;;;;13.20;7.53;;;16.10;99.90;;;;;;5020949;28;20039;-61
2023/06/10 01:02:18;;;;;;;11.05;6.60;;;16.10;99.90;;;;;;5007819;28;20033;-61
2023/06/10 01:04:44;;;;;;;9.27;6.55;;;16.00;99.90;;;;;;5018232;28;20044;-62
2023/06/10 01:07:37;;;;;;;14.98;8.32;;;16.00;99.90;;;;;;5006757;28;20400;-61
2023/06/10 01:10:13;;;;;;;11.32;7.45;;;16.00;99.90;;;;;;5013062;28;20297;-60
2023/06/10 01:12:50;;;;;;;10.88;7.03;;;16.00;99.90;;;;;;5041968;28;20036;-61
2023/06/10 01:15:16;;;;;;;10.07;7.53;;;15.90;99.90;;;;;;5062380;28;20048;-61
2023/06/10 01:18:02;;;;;;;13.55;6.70;;;15.80;99.90;;;;;;5025232;28;20081;-60
2023/06/10 01:20:31;;;;;;;11.18;6.60;;;15.80;99.90;;;;;;5047684;28;20036;-61
2023/06/10 01:22:58;;;;;;;12.63;7.45;;;15.80;99.90;;;;;;5010758;28;20484;-61
2023/06/10 01:25:28;;;;;;;10.30;7.07;;;15.80;99.90;;;;;;5037166;22;20042;-52
2023/06/10 01:28:35;;;;;;;12.10;6.88;;;15.80;99.90;;;;;;5024008;28;20085;-55
2023/06/10 01:31:21;;;;;;;12.70;6.80;;;15.70;99.90;;;;;;4970595;28;20057;-55
2023/06/10 01:33:51;;;;;;;10.65;6.18;;;15.70;99.90;;;;;;5028115;28;20045;-55
2023/06/10 01:36:19;;;;;;;12.38;7.60;;;15.70;99.90;;;;;;5043022;28;20060;-55
2023/06/10 01:38:47;;;;;;;8.48;6.47;;;15.70;99.90;;;;;;5042645;28;20087;-54
2023/06/10 01:41:15;;;;;;;12.43;7.13;;;15.70;99.90;;;;;;5045123;28;20103;-54
2023/06/10 01:43:43;;;;;;;14.13;6.95;;;15.70;99.90;;;;;;5037482;28;20317;-55
2023/06/10 01:46:10;;;;;;;13.98;6.70;;;15.70;99.90;;;;;;5042304;28;20439;-53
2023/06/10 01:48:37;;;;;;;10.98;6.93;;;15.60;99.90;;;;;;5044324;28;20087;-55
2023/06/10 01:51:04;;;;;;;13.20;7.72;;;15.60;99.90;;;;;;5042080;28;20041;-55
2023/06/10 01:53:30;;;;;;;10.38;7.03;;;15.60;99.90;;;;;;5044935;28;20449;-55
2023/06/10 01:55:56;;;;;;;11.82;7.00;;;15.60;99.90;;;;;;5029559;28;20163;-55
2023/06/10 01:58:21;;;;;;;14.43;7.70;;;15.60;99.90;;;;;;5042459;28;20090;-55
2023/06/10 02:00:47;;;;;;;13.52;6.32;;;15.60;99.90;;;;;;5043708;28;20051;-55
2023/06/10 02:03:13;;;;;;;11.88;7.50;;;15.50;99.90;;;;;;5025917;28;20048;-55
2023/06/10 02:05:39;;;;;;;13.15;8.10;;;15.50;99.90;;;;;;5047457;28;20051;-55
2023/06/10 02:08:05;;;;;;;11.95;6.93;;;15.50;99.90;;;;;;5039053;28;20044;-55
2023/06/10 02:10:31;;;;;;;10.57;6.85;;;15.40;99.90;;;;;;5039064;28;20037;-55
2023/06/10 02:12:56;;;;;;;11.35;6.65;;;15.40;99.90;;;;;;5027673;28;20178;-56
2023/06/10 02:15:22;;;;;;;13.05;6.78;;;15.40;99.90;;;;;;5042162;28;20518;-55
2023/06/10 02:17:49;;;;;;;11.05;7.22;;;15.40;99.90;;;;;;5041732;28;20033;-54
2023/06/10 02:20:15;;;;;;;10.15;6.75;;;15.40;99.90;;;;;;5044538;28;20055;-56
2023/06/10 02:22:40;;;;;;;12.98;7.25;;;15.30;99.90;;;;;;5025343;28;20037;-56
2023/06/10 02:25:07;;;;;;;10.10;7.07;;;15.30;99.90;;;;;;5040416;28;20033;-55
2023/06/10 02:27:33;;;;;;;8.75;6.63;;;15.30;99.90;;;;;;5046278;28;20048;-55
2023/06/10 02:29:58;;;;;;;11.10;6.70;;;15.30;99.90;;;;;;5025819;28;20283;-55
2023/06/10 02:32:25;;;;;;;14.50;8.05;;;15.20;99.90;;;;;;5043811;28;20037;-55
2023/06/10 02:34:51;;;;;;;11.80;7.28;;;15.20;99.90;;;;;;5040130;28;20048;-54
2023/06/10 02:37:17;;;;;;;10.23;7.85;;;15.20;99.90;;;;;;5042151;28;20989;-54
2023/06/10 02:39:43;;;;;;;11.27;6.75;;;15.10;99.90;;;;;;5041662;28;20124;-56
2023/06/10 02:42:09;;;;;;;11.32;6.97;;;15.20;99.90;;;;;;5046899;28;20044;-56
2023/06/10 02:44:35;;;;;;;10.90;7.32;;;15.10;99.90;;;;;;5043507;28;20040;-56
2023/06/10 02:47:01;;;;;;;9.85;7.22;;;15.10;99.90;;;;;;5043052;28;20419;-55
2023/06/10 02:49:29;;;;;;;11.93;6.95;;;15.00;99.90;;;;;;5041543;28;20232;-53
2023/06/10 02:51:56;;;;;;;11.95;6.97;;;15.10;99.90;;;;;;5042210;28;20045;-56
2023/06/10 02:54:25;;;;;;;9.63;6.70;;;15.00;99.90;;;;;;5040609;28;20037;-55
2023/06/10 02:56:52;;;;;;;9.45;5.97;;;15.00;99.90;;;;;;5043226;28;20226;-55
2023/06/10 02:59:18;;;;;;;10.80;6.60;;;14.90;99.90;;;;;;5023136;28;20119;-56
2023/06/10 03:01:43;;;;;;;13.20;6.47;;;15.00;99.90;;;;;;5045135;28;20037;-53
2023/06/10 03:04:09;;;;;;;12.60;7.18;;;15.00;99.90;;;;;;5039098;28;20133;-53
2023/06/10 03:06:35;;;;;;;11.25;6.55;;;15.00;99.90;;;;;;5043611;28;20048;-55
2023/06/10 03:09:04;;;;;;;11.82;7.00;;;15.00;99.90;;;;;;5035659;28;20045;-56
2023/06/10 03:11:30;;;;;;;11.43;6.97;;;14.90;99.90;;;;;;5041064;28;20033;-56
2023/06/10 03:13:57;;;;;;;13.20;6.45;;;14.90;99.90;;;;;;5044206;28;20036;-55
2023/06/10 03:16:25;;;;;;;11.75;6.78;;;14.80;99.90;;;;;;5043742;28;20033;-55
2023/06/10 03:18:51;;;;;;;12.73;7.88;;;14.70;99.90;;;;;;5025450;28;20040;-55
2023/06/10 03:21:17;;;;;;;10.70;6.72;;;14.70;99.90;;;;;;5039724;28;20080;-56
2023/06/10 03:23:42;;;;;;;9.55;7.10;;;14.80;99.90;;;;;;5044300;28;20079;-54
2023/06/10 03:26:09;;;;;;;12.75;6.90;;;14.80;99.90;;;;;;5045453;28;20041;-54
2023/06/10 03:28:35;;;;;;;13.50;7.65;;;14.70;99.90;;;;;;5024492;28;20052;-53
2023/06/10 03:31:01;;;;;;;10.57;6.97;;;14.70;99.90;;;;;;5023491;28;20214;-56
2023/06/10 03:33:27;;;;;;;9.55;6.93;;;14.70;99.90;;;;;;5043239;28;20131;-55
2023/06/10 03:35:53;;;;;;;12.38;8.25;;;14.70;99.90;;;;;;5038108;28;20446;-55
2023/06/10 03:38:19;;;;;;;15.55;7.38;;;14.60;99.90;;;;;;5039797;28;20480;-55
2023/06/10 03:40:45;;;;;;;11.43;7.35;;;14.60;99.90;;;;;;5038692;28;20301;-56
2023/06/10 03:43:10;;;;;;;14.85;8.52;;;14.60;99.90;;;;;;5041883;28;20067;-55
2023/06/10 03:45:36;;;;;;;14.57;7.63;;;14.60;99.90;;;;;;5026703;28;20076;-52
2023/06/10 03:48:03;;;;;;;10.35;6.60;;;14.50;99.90;;;;;;5041247;28;20128;-55
2023/06/10 03:50:29;;;;;;;13.10;7.57;;;14.50;99.90;;;;;;5037295;28;20052;-54
2023/06/10 03:52:55;;;;;;;11.25;7.93;;;14.50;99.90;;;;;;5042750;28;20052;-56
2023/06/10 03:55:21;;;;;;;14.55;7.90;;;14.50;99.90;;;;;;5040254;28;20045;-55
2023/06/10 03:57:48;;;;;;;14.60;8.38;;;14.40;99.90;;;;;;5025223;28;20120;-56
2023/06/10 04:00:17;;;;;;;12.48;7.72;;;14.40;99.90;;;;;;5038779;28;20041;-56
2023/06/10 04:02:48;;;;;;;10.32;6.72;;;14.40;99.90;;;;;;5041161;28;20037;-56
2023/06/10 04:05:17;;;;;;;12.23;7.40;;;14.40;99.90;;;;;;5041653;28;20044;-53
2023/06/10 04:07:44;;;;;;;18.65;8.15;;;14.40;99.90;;;;;;5036138;28;20041;-56
2023/06/10 04:10:11;;;;;;;11.80;7.88;;;14.40;99.90;;;;;;5022102;28;20045;-55
2023/06/10 04:12:37;;;;;;;12.75;7.03;;;14.40;99.90;;;;;;5043227;28;20109;-56
2023/06/10 04:15:04;;;;;;;13.82;8.20;;;14.40;99.90;;;;;;5037624;28;20499;-55
2023/06/10 04:17:30;;;;;;;16.95;8.18;;;14.40;99.90;;;;;;5037453;28;20401;-56
2023/06/10 04:19:56;;;;;;;12.48;7.95;;;14.40;99.90;;;;;;5045356;28;20206;-54
2023/06/10 04:22:22;;;;;;;12.05;7.38;;;14.40;99.90;;;;;;5041631;28;20037;-53
2023/06/10 04:24:48;;;;;;;12.57;7.00;;;14.40;99.90;;;;;;5040190;28;20063;-55
2023/06/10 04:27:14;;;;;;;13.90;7.45;;;14.40;99.90;;;;;;5023172;28;20279;-55
2023/06/10 04:29:40;;;;;;;11.50;7.40;;;14.40;99.90;;;;;;5025137;28;20041;-53
2023/06/10 04:32:07;;;;;;;15.07;7.05;;;14.40;99.90;;;;;;5041935;28;20055;-54
2023/06/10 04:34:36;;;;;;;10.63;7.75;;;14.40;99.90;;;;;;5042016;28;20128;-52
2023/06/10 04:37:01;;;;;;;13.43;7.10;;;14.40;99.90;;;;;;5023873;28;20382;-54
2023/06/10 04:39:27;;;;;;;13.90;7.65;;;14.40;99.90;;;;;;5043706;28;20046;-55
2023/06/10 04:41:53;;;;;;;12.00;6.90;;;14.40;99.90;;;;;;5041393;28;20033;-54
2023/06/10 04:44:18;;;;;;;14.73;6.97;;;14.40;99.90;;;;;;5047670;28;20504;-55
2023/06/10 04:46:45;;;;;;;12.98;6.90;;;14.40;99.90;;;;;;5045219;28;20120;-56
2023/06/10 04:49:14;;;;;;;11.38;6.60;;;14.50;99.90;;;;;;5042310;28;20039;-54
2023/06/10 04:51:40;;;;;;;13.63;8.05;;;14.50;99.90;;;;;;5046776;28;20063;-52
2023/06/10 04:54:06;;;;;;;14.45;7.85;;;14.50;99.90;;;;;;5050020;28;20415;-53
2023/06/10 04:56:32;;;;;;;15.07;7.55;;;14.60;99.90;;;;;;5039234;28;20040;-56
2023/06/10 04:58:58;;;;;;;12.43;6.88;;;14.60;99.90;;;;;;5027003;28;20037;-56
2023/06/10 05:01:23;;;;;;;14.45;7.00;;;14.60;99.90;;;;;;5048773;28;20132;-55
2023/06/10 05:03:49;;;;;;;11.02;7.00;;;14.60;99.90;;;;;;5040505;28;20040;-55
2023/06/10 05:06:15;;;;;;;11.65;7.63;;;14.60;99.90;;;;;;5041937;28;20032;-55
2023/06/10 05:08:40;;;;;;;14.80;7.15;;;14.70;99.90;;;;;;5043557;28;20129;-56
2023/06/10 05:11:06;;;;;;;15.15;7.22;;;14.70;99.90;;;;;;5046020;28;20503;-56
2023/06/10 05:13:32;;;;;;;16.30;7.60;;;14.80;99.90;;;;;;5027026;28;20128;-55
2023/06/10 05:15:58;;;;;;;14.02;7.28;;;14.80;99.90;;;;;;5043588;28;20040;-55
2023/06/10 05:18:24;;;;;;;11.27;6.55;;;14.90;99.90;;;;;;5027278;28;20068;-53
2023/06/10 05:20:50;;;;;;;9.65;7.00;;;14.90;99.90;;;;;;5048327;28;20111;-56
2023/06/10 05:23:15;;;;;;;9.60;6.72;;;15.00;99.90;;;;;;5047781;28;20041;-54
2023/06/10 05:25:42;;;;;;;11.65;7.03;;;15.00;99.90;;;;;;5045246;28;20052;-56
2023/06/10 05:28:11;;;;;;;13.40;6.78;;;15.20;99.90;;;;;;5049187;28;20500;-55
2023/06/10 05:30:37;;;;;;;18.88;8.77;;;15.30;99.90;;;;;;5039225;28;21824;-55
2023/06/10 05:33:03;;;;;;;13.20;7.07;;;15.40;99.90;;;;;;5043455;28;20435;-55
2023/06/10 05:35:29;;;;;;;11.60;7.00;;;15.50;99.90;;;;;;5045059;28;20055;-55
2023/06/10 05:37:55;;;;;;;12.80;7.60;;;15.60;99.90;;;;;;5028002;28;20037;-56
2023/06/10 05:40:21;;;;;;;11.25;6.60;;;15.70;99.90;;;;;;5042003;28;20137;-55
2023/06/10 05:42:49;;;;;;;16.10;7.07;;;15.80;99.90;;;;;;5042094;28;20400;-54
2023/06/10 05:45:15;;;;;;;14.10;7.60;;;15.90;99.90;;;;;;5047883;28;20095;-56
2023/06/10 05:47:41;;;;;;;14.73;7.65;;;16.00;99.90;;;;;;5043487;28;20320;-55
2023/06/10 05:50:08;;;;;;;11.88;6.90;;;16.00;99.90;;;;;;5047968;28;20183;-54
2023/06/10 05:52:40;;;;;;;13.30;7.28;;;16.10;99.90;;;;;;5046673;28;20049;-56
2023/06/10 05:55:06;;;;;;;12.27;7.00;;;16.20;99.90;;;;;;5034382;28;20500;-56
2023/06/10 05:57:32;;;;;;;10.82;6.80;;;16.30;99.90;;;;;;5040951;28;21543;-56
2023/06/10 05:59:58;;;;;;;11.65;6.57;;;16.40;99.90;;;;;;5045191;28;20510;-56
2023/06/10 06:02:23;;;;;;;13.85;6.90;;;16.40;99.90;;;;;;5038079;28;20127;-54
2023/06/10 06:04:49;;;;;;;11.82;7.55;;;16.50;99.90;;;;;;5043436;28;20033;-54
2023/06/10 06:07:15;;;;;;;14.50;6.78;;;16.60;99.90;;;;;;5048473;28;20067;-55
2023/06/10 06:09:41;;;;;;;16.92;6.63;;;16.80;99.90;;;;;;5044675;28;20044;-55
2023/06/10 06:12:07;;;;;;;17.25;9.18;;;16.90;99.90;;;;;;5041670;28;20055;-56
2023/06/10 06:14:39;;;;;;;14.00;8.15;;;17.00;99.90;;;;;;5044687;28;20404;-55
2023/06/10 06:17:05;;;;;;;12.10;7.07;;;17.00;99.90;;;;;;5041698;28;20093;-56
2023/06/10 06:19:30;;;;;;;13.40;7.30;;;17.10;99.90;;;;;;5042424;28;20072;-56
2023/06/10 06:21:56;;;;;;;13.45;6.80;;;17.20;99.90;;;;;;5040560;28;20033;-56
2023/06/10 06:24:22;;;;;;;13.98;7.47;;;17.20;99.90;;;;;;5038738;28;20397;-55
2023/06/10 06:26:47;;;;;;;18.25;9.40;;;17.30;99.90;;;;;;5042753;28;20079;-53
2023/06/10 06:29:13;;;;;;;15.13;8.07;;;17.40;99.90;;;;;;5024274;28;20048;-56
2023/06/10 06:31:39;;;;;;;12.55;7.22;;;17.50;99.90;;;;;;5040101;28;20099;-54
2023/06/10 06:34:04;;;;;;;12.45;6.90;;;17.60;99.90;;;;;;5045385;28;20048;-56
2023/06/10 06:36:30;;;;;;;11.15;6.40;;;17.70;99.90;;;;;;5043532;28;20086;-54
2023/06/10 06:38:57;;;;;;;11.98;6.65;;;17.70;99.90;;;;;;5041825;28;20033;-56
2023/06/10 06:41:22;;;;;;;12.30;7.10;;;17.80;99.90;;;;;;5043110;28;20099;-56
2023/06/10 06:43:48;;;;;;;12.88;5.93;;;17.90;99.90;;;;;;5042014;28;20450;-54
2023/06/10 06:46:15;;;;;;;13.30;6.05;;;18.00;99.90;;;;;;5042481;28;20062;-56
2023/06/10 06:48:41;;;;;;;10.93;6.38;;;18.10;99.90;;;;;;5037185;28;20125;-54
2023/06/10 06:51:07;;;;;;;10.07;6.00;;;18.10;99.90;;;;;;5024968;28;20049;-54
2023/06/10 06:53:32;;;;;;;9.48;5.80;;;18.20;99.90;;;;;;5043633;28;20097;-56
2023/06/10 06:55:58;;;;;;;11.88;6.75;;;18.30;99.90;;;;;;5023343;28;20041;-56
2023/06/10 06:58:24;;;;;;;14.80;6.97;;;18.40;99.90;;;;;;5039878;28;20029;-57
2023/06/10 07:00:50;;;;;;;11.70;6.40;;;18.50;99.90;;;;;;5039769;28;20053;-56
2023/06/10 07:03:16;;;;;;;9.40;6.15;;;18.60;99.90;;;;;;5039823;28;20388;-55
2023/06/10 07:05:42;;;;;;;12.35;6.50;;;18.70;99.90;;;;;;5044748;28;20140;-55
2023/06/10 07:08:11;;;;;;;10.35;5.97;;;18.80;99.90;;;;;;5063884;28;20033;-54
2023/06/10 07:10:37;;;;;;;11.98;6.45;;;19.00;99.90;;;;;;5041413;28;20065;-56
2023/06/10 07:13:03;;;;;;;10.18;6.28;;;19.00;99.90;;;;;;5040239;28;20076;-57
2023/06/10 07:15:29;;;;;;;11.05;6.78;;;19.20;99.90;;;;;;5044957;28;20051;-55
2023/06/10 07:17:55;;;;;;;10.45;5.57;;;19.30;99.90;;;;;;5035905;28;20099;-55
2023/06/10 07:20:21;;;;;;;11.90;6.30;;;19.50;99.90;;;;;;5017858;28;20088;-56
2023/06/10 07:22:46;;;;;;;13.88;6.53;;;19.50;99.90;;;;;;5037396;28;20111;-54
2023/06/10 07:25:12;;;;;;;10.95;5.60;;;19.60;99.90;;;;;;5033429;23;20045;-61
2023/06/10 07:27:38;;;;;;;9.88;6.40;;;19.70;99.90;;;;;;4987985;28;20052;-62
2023/06/10 07:30:08;;;;;;;13.50;6.90;;;19.70;99.90;;;;;;4991867;28;20041;-62
2023/06/10 07:32:34;;;;;;;14.18;6.15;;;19.70;99.90;;;;;;5006717;28;20060;-62
2023/06/10 07:34:59;;;;;;;9.85;5.65;;;19.90;99.90;;;;;;5001710;28;20036;-62
2023/06/10 07:37:25;;;;;;;9.15;5.45;;;19.90;99.90;;;;;;5010733;28;20075;-62
2023/06/10 07:39:51;;;;;;;8.55;5.53;;;20.00;99.90;;;;;;5021098;28;20067;-61
2023/06/10 07:42:16;;;;;;;10.35;6.05;;;20.00;99.90;;;;;;5023128;28;20037;-63
2023/06/10 07:44:42;;;;;;;13.98;6.55;;;20.10;99.90;;;;;;5003754;28;20036;-62
2023/06/10 07:47:08;;;;;;;12.65;6.47;;;20.10;99.90;;;;;;5024777;28;20547;-62
2023/06/10 07:49:34;;;;;;;13.38;6.63;;;20.20;99.90;;;;;;5006898;28;20309;-62
2023/06/10 07:51:59;;;;;;;9.45;5.22;;;20.20;99.90;;;;;;5025333;28;20041;-62
2023/06/10 07:54:25;;;;;;;10.57;6.35;;;20.30;99.90;;;;;;5024987;28;20050;-62
2023/06/10 07:56:52;;;;;;;10.85;5.90;;;20.40;99.90;;;;;;5006537;28;20079;-62
2023/06/10 07:59:18;;;;;;;12.43;6.40;;;20.40;99.90;;;;;;5040308;28;20049;-61
2023/06/10 08:01:46;;;;;;;9.75;5.72;;;20.60;99.90;;;;;;5007764;28;20048;-61
2023/06/10 08:04:11;;;;;;;9.18;5.57;;;20.60;99.90;;;;;;5025362;28;20393;-62
2023/06/10 08:06:37;;;;;;;9.50;5.68;;;20.80;99.90;;;;;;5004551;28;20095;-63
2023/06/10 08:09:03;;;;;;;10.45;6.30;;;21.00;99.90;;;;;;5021662;28;20106;-62
2023/06/10 08:11:29;;;;;;;9.05;5.18;;;21.00;99.90;;;;;;5005087;28;20110;-62
2023/06/10 08:13:55;;;;;;;9.25;5.80;;;21.00;99.90;;;;;;5021916;28;20392;-62
2023/06/10 08:16:26;;;;;;;9.60;5.60;;;21.10;99.90;;;;;;5023630;28;20371;-61
2023/06/10 08:18:52;;;;;;;7.85;5.32;;;21.20;99.90;;;;;;5021735;28;20393;-61
2023/06/10 08:21:19;;;;;;;10.68;5.03;;;21.20;99.90;;;;;;5026693;28;20052;-62
2023/06/10 08:23:45;;;;;;;7.57;5.47;;;21.30;99.90;;;;;;5023628;28;20574;-62
2023/06/10 08:26:10;;;;;;;9.13;5.95;;;21.40;99.90;;;;;;5028572;28;20078;-61
2023/06/10 08:28:36;;;;;;;7.50;4.80;;;21.50;99.90;;;;;;5023496;28;20125;-62
2023/06/10 08:31:02;;;;;;;8.00;5.53;;;21.60;99.60;;;;;;5043641;28;20047;-62
2023/06/10 08:33:28;;;;;;;10.15;5.53;;;21.80;99.70;;;;;;5007579;28;20045;-61
2023/06/10 08:35:53;;;;;;;11.05;5.45;;;21.90;99.10;;;;;;5024141;28;20033;-62
2023/06/10 08:38:19;;;;;;;9.73;5.43;;;21.90;99.00;;;;;;5007800;28;20577;-62
2023/06/10 08:40:45;;;;;;;11.35;5.93;;;22.10;98.10;;;;;;5005645;28;20091;-62
2023/06/10 08:43:22;;;;;;;7.10;4.57;;;22.20;98.10;;;;;;5026145;28;20044;-62
2023/06/10 08:45:49;;;;;;;8.88;5.18;;;22.30;98.60;;;;;;5023347;28;20033;-62
2023/06/10 08:48:19;;;;;;;8.18;5.13;;;22.50;98.40;;;;;;5024511;28;20045;-61
2023/06/10 08:50:45;;;;;;;7.75;4.80;;;22.50;97.60;;;;;;5024789;28;20053;-62
2023/06/10 08:53:17;;;;;;;16.90;5.75;;;22.60;98.00;;;;;;5003457;28;20052;-61
2023/06/10 08:55:49;;;;;;;8.70;5.27;;;22.60;97.60;;;;;;5025524;28;20651;-60
2023/06/10 08:58:15;;;;;;;8.25;5.15;;;22.70;96.70;;;;;;5005861;28;20388;-62
2023/06/10 09:00:41;;;;;;;7.10;5.13;;;22.80;96.20;;;;;;5024694;28;20075;-62
2023/06/10 09:03:08;;;;;;;8.95;5.47;;;22.80;95.70;;;;;;5008446;28;20037;-62
2023/06/10 09:05:36;;;;;;;9.50;5.78;;;22.90;96.10;;;;;;5043462;28;20508;-62
2023/06/10 09:08:02;;;;;;;8.73;5.38;;;23.00;96.50;;;;;;5017297;28;20121;-61
2023/06/10 09:10:29;;;;;;;12.45;6.43;;;23.10;96.30;;;;;;5036030;28;20033;-62
2023/06/10 09:12:55;;;;;;;6.95;5.03;;;23.20;96.00;;;;;;5022360;28;20421;-61
2023/06/10 09:16:00;;;;;;;;;;;23.20;95.50;;;;;;5042781;28;20076;-62
2023/06/10 09:18:30;;;;;;;8.98;4.93;;;23.30;95.40;;;;;;5022453;28;20429;-61
2023/06/10 09:20:56;;;;;;;7.85;4.90;;;23.40;95.60;;;;;;5023070;28;20487;-61
2023/06/10 09:23:22;;;;;;;9.52;4.78;;;23.30;94.80;;;;;;5025498;28;20044;-62
2023/06/10 09:25:58;;;;;;;7.00;4.32;;;23.30;94.60;;;;;;5021947;28;20120;-62
2023/06/10 09:28:25;;;;;;;10.73;4.60;;;23.30;93.30;;;;;;5026011;28;20072;-62
2023/06/10 09:31:05;;;;;;;10.68;5.10;;;23.40;93.50;;;;;;5025280;28;20124;-62
2023/06/10 09:33:31;;;;;;;10.90;5.65;;;23.60;94.50;;;;;;5023427;28;20033;-62
2023/06/10 09:36:00;;;;;;;10.82;5.47;;;23.60;94.50;;;;;;5028096;28;20087;-62
2023/06/10 09:38:31;;;;;;;8.60;5.15;;;23.70;94.50;;;;;;5026261;28;20040;-62
2023/06/10 09:40:57;;;;;;;7.88;5.03;;;23.80;94.40;;;;;;5044433;28;20053;-62
2023/06/10 09:43:37;;;;;;;7.25;4.63;;;23.90;94.70;;;;;;5042890;28;20029;-63
2023/06/10 09:46:03;;;;;;;7.57;4.50;;;24.00;94.00;;;;;;5028075;28;20037;-61
2023/06/10 09:48:29;;;;;;;4.18;3.60;;;23.90;93.50;;;;;;5029059;28;20477;-62
2023/06/10 09:50:55;;;;;;;5.70;4.22;;;24.00;92.70;;;;;;5050891;28;20041;-61
2023/06/10 09:53:20;;;;;;;10.70;4.80;;;24.20;93.30;;;;;;5014119;28;20499;-62
2023/06/10 09:55:46;;;;;;;7.13;4.43;;;24.30;93.80;;;;;;5047839;28;20076;-61
2023/06/10 09:58:12;;;;;;;7.95;4.30;;;24.40;93.80;;;;;;5030919;28;20045;-61
2023/06/10 10:00:37;;;;;;;6.60;4.13;;;24.40;93.90;;;;;;5031486;28;20033;-62
2023/06/10 10:03:03;;;;;;;8.43;4.63;;;24.50;93.60;;;;;;5032219;28;20045;-62
2023/06/10 10:05:29;;;;;;;7.35;4.28;;;24.50;93.80;;;;;;5028785;28;20044;-61
2023/06/10 10:07:56;;;;;;;7.75;4.90;;;24.70;93.80;;;;;;5030878;28;20105;-61
2023/06/10 10:10:22;;;;;;;6.85;4.20;;;24.80;92.90;;;;;;5032458;28;20097;-62
2023/06/10 10:12:53;;;;;;;7.65;4.05;;;24.70;92.10;;;;;;5010958;28;20039;-62
2023/06/10 10:15:21;;;;;;;8.95;4.20;;;24.60;91.20;;;;;;5032776;28;20090;-61
2023/06/10 10:17:55;;;;;;;9.27;3.80;;;24.60;91.70;;;;;;5047031;28;20041;-62
2023/06/10 10:20:26;;;;;;;5.55;3.72;;;24.60;91.60;;;;;;5031370;28;20032;-61
2023/06/10 10:22:56;;;;;;;7.60;4.07;;;24.70;91.80;;;;;;5028911;28;20037;-61
2023/06/10 10:25:29;;;;;;;6.70;3.72;;;24.90;91.70;;;;;;5046740;28;20102;-63
2023/06/10 10:27:57;;;;;;;7.57;4.00;;;25.00;91.40;;;;;;5015492;28;20040;-62
2023/06/10 10:30:24;;;;;;;7.10;4.15;;;25.10;91.20;;;;;;5027061;28;20490;-61
2023/06/10 10:33:12;;;;;;;7.97;4.05;;;25.10;91.80;;;;;;5027442;28;20043;-61
2023/06/10 10:35:38;;;;;;;8.73;3.92;;;25.30;91.80;;;;;;5026933;28;20090;-60
2023/06/10 10:38:04;;;;;;;7.88;3.63;;;25.50;92.40;;;;;;5031315;28;20431;-60
2023/06/10 10:40:32;;;;;;;8.82;4.35;;;25.70;92.00;;;;;;5008330;28;20040;-59
2023/06/10 10:42:59;;;;;;;8.43;4.32;;;26.00;91.80;;;;;;5010894;28;20039;-59
2023/06/10 10:45:28;;;;;;;6.97;3.88;;;26.00;90.40;;;;;;5025471;28;20135;-60
2023/06/10 10:47:57;;;;;;;8.35;3.88;;;25.90;90.40;;;;;;5046596;28;20068;-60
2023/06/10 10:50:23;;;;;;;8.68;4.53;;;25.70;90.40;;;;;;5025933;28;20124;-60
2023/06/10 10:52:59;;;;;;;5.15;3.63;;;25.70;90.50;;;;;;5027995;28;20167;-57
2023/06/10 10:55:27;;;;;;;10.20;4.13;;;25.70;90.70;;;;;;5027275;28;20045;-61
2023/06/10 10:58:04;;;;;;;8.10;4.15;;;25.90;90.40;;;;;;5047134;28;20033;-60
2023/06/10 11:00:35;;;;;;;7.72;3.88;;;25.90;89.40;;;;;;5026528;28;20101;-61
2023/06/10 11:03:04;;;;;;;6.75;4.07;;;26.10;89.90;;;;;;5025591;28;20044;-61
2023/06/10 11:05:50;;;;;;;7.90;4.20;;;26.20;88.60;;;;;;5028212;28;20047;-62
2023/06/10 11:08:38;;;;;;;5.93;3.78;;;26.30;88.10;;;;;;5012713;28;20178;-61
2023/06/10 11:11:25;;;;;;;7.72;4.13;;;26.40;87.00;;;;;;5025459;28;20045;-61
2023/06/10 11:14:04;;;;;;;7.88;3.88;;;26.50;87.80;;;;;;5030846;28;20033;-61
2023/06/10 11:16:41;;;;;;;6.07;3.40;;;26.60;87.10;;;;;;5012047;28;20466;-62
2023/06/10 11:19:07;;;;;;;5.63;3.47;;;26.70;85.40;;;;;;5025119;28;20089;-62
2023/06/10 11:21:56;;;;;;;5.75;3.60;;;26.50;83.00;;;;;;5023096;28;20491;-62
2023/06/10 11:24:22;;;;;;;5.88;3.13;;;26.40;84.10;;;;;;5050509;28;20068;-62
2023/06/10 11:26:48;;;;;;;6.72;3.22;;;26.50;84.20;;;;;;5045339;28;20041;-61
2023/06/10 11:29:15;;;;;;;6.05;3.45;;;26.70;84.30;;;;;;5032079;28;20047;-61
2023/06/10 11:31:43;;;;;;;6.10;3.03;;;26.90;83.60;;;;;;5025801;28;20048;-61
2023/06/10 11:34:09;;;;;;;5.20;3.35;;;26.90;81.30;;;;;;5027930;28;20052;-61
2023/06/10 11:36:42;;;;;;;7.10;3.53;;;26.90;81.40;;;;;;5023974;28;20051;-62
2023/06/10 11:39:09;;;;;;;10.43;3.60;;;27.00;81.60;;;;;;5027169;28;20068;-61
2023/06/10 11:41:36;;;;;;;6.97;3.97;;;27.10;81.10;;;;;;5026562;28;20135;-61
2023/06/10 11:44:13;;;;;;;6.32;3.33;;;27.10;80.80;;;;;;5030759;28;20044;-61
2023/06/10 11:46:42;;;;;;;7.55;3.20;;;27.20;80.90;;;;;;5026924;28;20044;-61
2023/06/10 11:49:08;;;;;;;7.93;3.30;;;27.30;80.00;;;;;;5028084;28;20052;-61
2023/06/10 11:51:39;;;;;;;8.35;3.17;;;27.50;80.50;;;;;;5025401;28;20037;-61
2023/06/10 11:54:08;;;;;;;6.22;2.95;;;27.60;79.70;;;;;;5027805;28;20044;-62
2023/06/10 11:56:33;;;;;;;5.78;3.05;;;27.50;78.00;;;;;;5025544;28;20083;-62
2023/06/10 11:59:04;;;;;;;6.00;3.00;;;27.50;78.00;;;;;;5012739;28;20453;-61
2023/06/10 12:01:31;;;;;;;4.72;3.13;;;27.50;77.10;;;;;;5040768;28;20036;-62
2023/06/10 12:04:15;;;;;;;6.43;3.85;;;27.60;78.40;;;;;;5026344;28;20041;-62
2023/06/10 12:06:49;;;;;;;6.70;2.85;;;27.90;78.20;;;;;;5026441;28;20045;-62
2023/06/10 12:09:25;;;;;;;4.45;2.65;;;28.00;79.20;;;;;;5027656;28;20455;-61
2023/06/10 12:12:12;;;;;;;5.97;2.83;;;28.20;79.20;;;;;;5041552;28;20048;-62
2023/06/10 12:14:57;;;;;;;8.30;3.13;;;28.20;77.10;;;;;;5011920;28;20045;-60
2023/06/10 12:17:33;;;;;;;5.50;3.08;;;28.30;76.90;;;;;;5025028;28;20445;-62
2023/06/10 12:20:00;;;;;;;5.93;3.15;;;28.30;76.80;;;;;;5045421;28;20476;-61
2023/06/10 12:22:26;;;;;;;5.88;3.63;;;28.40;75.00;;;;;;5042238;28;20043;-61
2023/06/10 12:24:59;;;;;;;5.90;3.00;;;28.30;73.70;;;;;;5013220;28;20037;-62
2023/06/10 12:27:25;;;;;;;;;;;28.40;74.40;;;;;;5027347;28;20040;-62
2023/06/10 12:29:55;;;;;;;5.95;3.10;;;28.40;73.90;;;;;;5028332;28;20299;-62
2023/06/10 12:32:27;;;;;;;5.32;3.08;;;28.30;75.30;;;;;;5027226;28;20069;-61
2023/06/10 12:35:04;;;;;;;5.55;3.30;;;28.30;73.40;;;;;;5027786;28;20507;-61
2023/06/10 12:37:30;;;;;;;4.28;3.00;;;28.20;72.80;;;;;;5025647;28;20045;-62
2023/06/10 12:39:56;;;;;;;6.45;3.25;;;28.10;74.90;;;;;;5008126;28;20048;-62
2023/06/10 12:42:25;;;;;;;8.07;3.45;;;28.30;76.50;;;;;;5043391;28;20488;-62
2023/06/10 12:44:54;;;;;;;7.32;3.70;;;28.40;78.30;;;;;;5025282;28;20041;-59